createdAt,value
2023-02-04T00:01:38.477Z,103367.59
2023-02-04T00:04:05.160Z,103366.75
2023-02-04T00:06:31.662Z,103367.53
2023-02-04T00:08:58.141Z,103364.94
2023-02-04T00:11:24.566Z,103370.91
2023-02-04T00:13:50.954Z,103368.34
2023-02-04T00:16:17.446Z,103382.72
2023-02-04T00:18:43.925Z,103382.72
2023-02-04T00:21:10.764Z,103383.47
2023-02-04T00:23:37.195Z,103386.81
2023-02-04T00:26:03.822Z,103390.25
2023-02-04T00:28:30.260Z,103399.59
2023-02-04T00:30:56.689Z,103397.88
2023-02-04T00:33:23.168Z,103396.16
2023-02-04T00:35:49.644Z,103396.94
2023-02-04T00:38:16.470Z,103408.00
2023-02-04T00:40:42.923Z,103402.00
2023-02-04T00:43:09.395Z,103397.69
2023-02-04T00:45:35.878Z,103399.41
2023-02-04T00:48:02.310Z,103396.84
2023-02-04T00:50:29.184Z,103393.38
2023-02-04T00:52:55.831Z,103394.16
2023-02-04T00:55:22.367Z,103396.59
2023-02-04T00:57:48.757Z,103404.09
2023-02-04T01:00:16.318Z,103398.88
2023-02-04T01:02:42.782Z,103406.41
2023-02-04T01:05:10.371Z,103405.44
2023-02-04T01:07:37.321Z,103407.13
2023-02-04T01:10:04.215Z,103414.69
2023-02-04T01:12:30.712Z,103416.28
2023-02-04T01:14:57.758Z,103421.34
2023-02-04T01:17:24.301Z,103428.13
2023-02-04T01:19:50.806Z,103433.19
2023-02-04T01:22:17.191Z,103428.06
2023-02-04T01:24:43.636Z,103436.63
2023-02-04T01:27:10.134Z,103432.38
2023-02-04T01:29:36.615Z,103430.66
2023-02-04T01:32:03.125Z,103440.00
2023-02-04T01:34:31.505Z,103439.16
2023-02-04T01:36:58.004Z,103450.22
2023-02-04T01:39:24.487Z,103453.56
2023-02-04T01:41:51.090Z,103456.09
2023-02-04T01:44:17.684Z,103451.81
2023-02-04T01:46:44.207Z,103450.06
2023-02-04T01:49:11.292Z,103457.75
2023-02-04T01:51:37.900Z,103460.25
2023-02-04T01:54:05.514Z,103462.81
2023-02-04T01:56:32.423Z,103472.22
2023-02-04T01:58:59.059Z,103484.09
2023-02-04T02:01:34.585Z,103484.09
2023-02-04T02:04:01.755Z,103477.31
2023-02-04T02:06:28.675Z,103473.94
2023-02-04T02:08:55.337Z,103488.38
2023-02-04T02:11:21.761Z,103486.75
2023-02-04T02:13:48.157Z,103481.63
2023-02-04T02:16:14.816Z,103485.81
2023-02-04T02:18:41.306Z,103484.97
2023-02-04T02:21:12.043Z,103490.94
2023-02-04T02:23:50.318Z,103495.97
2023-02-04T02:26:19.178Z,103498.53
2023-02-04T02:28:47.756Z,103480.56
2023-02-04T02:31:16.319Z,103490.75
2023-02-04T02:33:43.064Z,103489.94
2023-02-04T02:36:10.198Z,103495.03
2023-02-04T02:38:37.068Z,103496.72
2023-02-04T02:41:05.571Z,103493.28
2023-02-04T02:43:32.496Z,103483.00
2023-02-04T02:46:00.911Z,103488.03
2023-02-04T02:48:27.510Z,103483.59
2023-02-04T02:50:54.095Z,103486.81
2023-02-04T02:53:20.905Z,103490.94
2023-02-04T02:55:48.647Z,103494.16
2023-02-04T02:58:36.208Z,103491.44
2023-02-04T03:01:06.037Z,103488.00
2023-02-04T03:03:35.949Z,103493.78
2023-02-04T03:06:11.319Z,103500.44
2023-02-04T03:08:38.870Z,103502.09
2023-02-04T03:11:05.727Z,103496.00
2023-02-04T03:13:33.874Z,103504.44
2023-02-04T03:16:01.031Z,103519.63
2023-02-04T03:18:28.024Z,103514.44
2023-02-04T03:20:54.786Z,103515.22
2023-02-04T03:23:21.400Z,103520.19
2023-02-04T03:25:47.955Z,103519.22
2023-02-04T03:28:14.425Z,103518.25
2023-02-04T03:30:41.069Z,103515.56
2023-02-04T03:33:07.580Z,103519.78
2023-02-04T03:35:34.081Z,103526.50
2023-02-04T03:38:00.583Z,103525.66
2023-02-04T03:40:27.082Z,103522.97
2023-02-04T03:42:53.586Z,103520.38
2023-02-04T03:45:20.139Z,103525.47
2023-02-04T03:47:46.565Z,103535.59
2023-02-04T03:50:14.399Z,103529.53
2023-02-04T03:52:40.912Z,103526.94
2023-02-04T03:55:07.655Z,103537.06
2023-02-04T03:57:34.073Z,103527.56
2023-02-04T04:00:00.530Z,103530.09
2023-02-04T04:02:26.948Z,103525.91
2023-02-04T04:04:53.452Z,103530.19
2023-02-04T04:07:19.895Z,103523.47
2023-02-04T04:09:46.320Z,103522.72
2023-02-04T04:12:12.783Z,103523.59
2023-02-04T04:14:39.246Z,103525.47
2023-02-04T04:17:05.690Z,103530.66
2023-02-04T04:19:33.036Z,103533.38
2023-02-04T04:21:59.470Z,103535.97
2023-02-04T04:24:25.943Z,103540.22
2023-02-04T04:26:52.402Z,103536.81
2023-02-04T04:29:18.891Z,103539.31
2023-02-04T04:31:45.524Z,103538.44
2023-02-04T04:34:12.057Z,103535.03
2023-02-04T04:36:38.553Z,103538.44
2023-02-04T04:39:04.963Z,103549.41
2023-02-04T04:41:31.509Z,103550.19
2023-02-04T04:43:57.903Z,103546.69
2023-02-04T04:46:24.380Z,103555.88
2023-02-04T04:48:51.540Z,103560.91
2023-02-04T04:51:18.069Z,103561.72
2023-02-04T04:53:44.537Z,103564.25
2023-02-04T04:56:10.939Z,103560.72
2023-02-04T04:58:37.436Z,103557.25
2023-02-04T05:01:04.014Z,103563.16
2023-02-04T05:03:30.556Z,103558.81
2023-02-04T05:05:57.009Z,103558.69
2023-02-04T05:08:23.497Z,103552.69
2023-02-04T05:10:49.862Z,103549.31
2023-02-04T05:13:16.309Z,103549.38
2023-02-04T05:15:42.800Z,103545.09
2023-02-04T05:18:09.307Z,103557.00
2023-02-04T05:20:35.679Z,103562.13
2023-02-04T05:23:05.387Z,103568.09
2023-02-04T05:25:32.447Z,103568.97
2023-02-04T05:27:58.899Z,103565.50
2023-02-04T05:30:25.391Z,103562.06
2023-02-04T05:32:51.928Z,103559.34
2023-02-04T05:35:18.491Z,103564.44
2023-02-04T05:37:44.963Z,103565.28
2023-02-04T05:40:11.978Z,103565.28
2023-02-04T05:42:38.483Z,103572.03
2023-02-04T05:45:05.369Z,103574.53
2023-02-04T05:47:31.851Z,103572.75
2023-02-04T05:49:58.267Z,103577.03
2023-02-04T05:52:24.755Z,103582.03
2023-02-04T05:54:51.276Z,103576.09
2023-02-04T05:57:17.759Z,103579.53
2023-02-04T05:59:44.249Z,103571.91
2023-02-04T06:02:10.670Z,103583.88
2023-02-04T06:04:37.227Z,103587.28
2023-02-04T06:07:03.736Z,103583.13
2023-02-04T06:09:30.163Z,103589.06
2023-02-04T06:11:57.601Z,103594.22
2023-02-04T06:14:24.093Z,103600.13
2023-02-04T06:16:50.606Z,103605.16
2023-02-04T06:19:17.158Z,103612.84
2023-02-04T06:21:43.588Z,103604.41
2023-02-04T06:24:10.377Z,103615.50
2023-02-04T06:26:36.805Z,103621.44
2023-02-04T06:29:03.237Z,103620.59
2023-02-04T06:31:29.887Z,103626.63
2023-02-04T06:33:56.388Z,103627.47
2023-02-04T06:36:22.899Z,103634.31
2023-02-04T06:38:49.354Z,103638.56
2023-02-04T06:41:15.815Z,103636.06
2023-02-04T06:43:42.245Z,103640.31
2023-02-04T06:46:08.723Z,103650.50
2023-02-04T06:48:35.225Z,103656.50
2023-02-04T06:51:01.685Z,103659.94
2023-02-04T06:53:28.130Z,103664.19
2023-02-04T06:55:54.615Z,103670.19
2023-02-04T06:58:21.085Z,103677.03
2023-02-04T07:00:47.549Z,103680.38
2023-02-04T07:03:13.960Z,103680.44
2023-02-04T07:05:40.316Z,103683.88
2023-02-04T07:08:06.806Z,103685.53
2023-02-04T07:10:33.864Z,103688.13
2023-02-04T07:13:00.585Z,103689.88
2023-02-04T07:15:27.039Z,103685.56
2023-02-04T07:17:53.999Z,103687.28
2023-02-04T07:20:23.577Z,103691.56
2023-02-04T07:22:49.995Z,103677.06
2023-02-04T07:25:17.790Z,103682.16
2023-02-04T07:27:44.849Z,103695.78
2023-02-04T07:30:12.131Z,103690.66
2023-02-04T07:32:38.743Z,103697.50
2023-02-04T07:35:05.742Z,103698.41
2023-02-04T07:37:32.451Z,103703.50
2023-02-04T07:39:58.915Z,103712.94
2023-02-04T07:42:25.351Z,103707.91
2023-02-04T07:44:51.724Z,103710.53
2023-02-04T07:47:18.230Z,103713.13
2023-02-04T07:49:44.606Z,103723.47
2023-02-04T07:52:11.077Z,103721.88
2023-02-04T07:54:37.531Z,103717.72
2023-02-04T07:57:04.018Z,103718.66
2023-02-04T07:59:30.434Z,103728.09
2023-02-04T08:01:56.973Z,103735.00
2023-02-04T08:04:23.371Z,103735.09
2023-02-04T08:06:49.911Z,103741.94
2023-02-04T08:09:19.342Z,103744.53
2023-02-04T08:11:45.812Z,103747.19
2023-02-04T08:14:12.823Z,103739.56
2023-02-04T08:16:39.387Z,103748.22
2023-02-04T08:19:05.931Z,103750.03
2023-02-04T08:21:32.570Z,103756.97
2023-02-04T08:23:58.994Z,103751.97
2023-02-04T08:26:25.422Z,103756.28
2023-02-04T08:28:51.843Z,103752.16
2023-02-04T08:31:18.376Z,103752.28
2023-02-04T08:33:44.924Z,103760.94
2023-02-04T08:36:11.426Z,103766.13
2023-02-04T08:38:37.931Z,103775.47
2023-02-04T08:41:04.692Z,103776.41
2023-02-04T08:43:31.456Z,103776.56
2023-02-04T08:45:57.971Z,103774.13
2023-02-04T08:48:31.885Z,103771.72
2023-02-04T08:50:58.320Z,103775.38
2023-02-04T08:53:24.744Z,103775.53
2023-02-04T08:55:51.191Z,103775.69
2023-02-04T08:58:17.686Z,103788.53
2023-02-04T09:00:44.337Z,103782.75
2023-02-04T09:03:10.858Z,103783.75
2023-02-04T09:05:37.358Z,103782.09
2023-02-04T09:08:03.780Z,103781.28
2023-02-04T09:10:30.501Z,103788.25
2023-02-04T09:12:57.211Z,103787.50
2023-02-04T09:15:24.674Z,103789.25
2023-02-04T09:17:54.070Z,103788.47
2023-02-04T09:20:21.518Z,103786.00
2023-02-04T09:22:50.233Z,103793.84
2023-02-04T09:25:16.860Z,103797.44
2023-02-04T09:27:43.332Z,103789.63
2023-02-04T09:30:10.472Z,103792.50
2023-02-04T09:32:37.206Z,103791.25
2023-02-04T09:35:03.811Z,103787.16
2023-02-04T09:37:30.246Z,103789.66
2023-02-04T09:39:56.615Z,103789.56
2023-02-04T09:42:26.318Z,103799.84
2023-02-04T09:44:53.196Z,103793.97
2023-02-04T09:47:23.892Z,103790.94
2023-02-04T09:49:50.308Z,103790.34
2023-02-04T09:52:18.376Z,103786.88
2023-02-04T09:54:45.434Z,103790.34
2023-02-04T09:57:21.693Z,103793.13
2023-02-04T09:59:50.958Z,103798.34
2023-02-04T10:02:26.246Z,103807.19
2023-02-04T10:04:57.577Z,103806.69
2023-02-04T10:07:26.449Z,103807.94
2023-02-04T10:09:54.344Z,103816.75
2023-02-04T10:12:21.558Z,103813.06
2023-02-04T10:14:48.119Z,103811.06
2023-02-04T10:17:20.328Z,103816.03
2023-02-04T10:19:46.931Z,103809.25
2023-02-04T10:22:18.219Z,103817.19
2023-02-04T10:24:44.676Z,103814.97
2023-02-04T10:27:12.822Z,103813.50
2023-02-04T10:29:40.401Z,103819.69
2023-02-04T10:32:25.306Z,103824.03
2023-02-04T10:34:58.596Z,103814.78
2023-02-04T10:37:25.122Z,103821.69
2023-02-04T10:39:51.497Z,103816.84
2023-02-04T10:42:22.053Z,103813.63
2023-02-04T10:44:48.792Z,103812.00
2023-02-04T10:47:18.451Z,103819.56
2023-02-04T10:50:02.976Z,103816.97
2023-02-04T10:52:41.607Z,103820.53
2023-02-04T10:55:14.350Z,103818.97
2023-02-04T10:57:43.124Z,103818.22
2023-02-04T11:00:19.442Z,103816.50
2023-02-04T11:03:08.114Z,103816.63
2023-02-04T11:05:35.903Z,103812.59
2023-02-04T11:08:16.973Z,103816.72
2023-02-04T11:10:43.639Z,103821.75
2023-02-04T11:13:22.672Z,103820.28
2023-02-04T11:15:51.268Z,103812.91
2023-02-04T11:18:20.754Z,103810.38
2023-02-04T11:20:49.329Z,103818.16
2023-02-04T11:23:17.296Z,103816.47
2023-02-04T11:25:43.912Z,103812.00
2023-02-04T11:28:26.971Z,103815.53
2023-02-04T11:31:03.914Z,103815.31
2023-02-04T11:33:42.156Z,103806.59
2023-02-04T11:36:12.035Z,103811.72
2023-02-04T11:38:39.521Z,103809.16
2023-02-04T11:41:06.544Z,103808.16
2023-02-04T11:43:34.954Z,103812.34
2023-02-04T11:46:16.154Z,103805.25
2023-02-04T11:48:43.714Z,103797.44
2023-02-04T11:51:16.417Z,103810.06
2023-02-04T11:53:43.031Z,103820.19
2023-02-04T11:56:22.617Z,103801.19
2023-02-04T11:58:53.544Z,103810.50
2023-02-04T12:01:29.841Z,103808.78
2023-02-04T12:03:58.764Z,103805.31
2023-02-04T12:06:28.475Z,103802.78
2023-02-04T12:09:15.857Z,103807.97
2023-02-04T12:12:02.648Z,103803.75
2023-02-04T12:14:37.795Z,103810.66
2023-02-04T12:17:20.505Z,103810.75
2023-02-04T12:19:47.100Z,103811.66
2023-02-04T12:22:15.570Z,103811.75
2023-02-04T12:24:48.034Z,103818.66
2023-02-04T12:27:14.603Z,103819.53
2023-02-04T12:29:41.054Z,103818.78
2023-02-04T12:32:07.587Z,103817.25
2023-02-04T12:34:34.048Z,103821.66
2023-02-04T12:37:00.617Z,103828.56
2023-02-04T12:39:28.521Z,103819.19
2023-02-04T12:41:55.165Z,103814.88
2023-02-04T12:44:21.584Z,103817.44
2023-02-04T12:46:48.166Z,103816.63
2023-02-04T12:49:14.710Z,103817.53
2023-02-04T12:51:41.138Z,103820.97
2023-02-04T12:54:07.713Z,103815.00
2023-02-04T12:56:34.229Z,103806.50
2023-02-04T12:59:00.623Z,103818.56
2023-02-04T13:01:27.132Z,103817.78
2023-02-04T13:03:53.479Z,103814.41
2023-02-04T13:06:20.021Z,103814.50
2023-02-04T13:08:46.450Z,103816.25
2023-02-04T13:11:12.944Z,103807.66
2023-02-04T13:13:39.375Z,103808.56
2023-02-04T13:16:05.898Z,103810.34
2023-02-04T13:18:33.985Z,103804.31
2023-02-04T13:21:04.698Z,103806.06
2023-02-04T13:23:34.102Z,103796.56
2023-02-04T13:26:00.681Z,103800.81
2023-02-04T13:28:27.046Z,103800.66
2023-02-04T13:30:53.475Z,103795.47
2023-02-04T13:33:19.866Z,103794.56
2023-02-04T13:35:46.345Z,103790.22
2023-02-04T13:38:12.766Z,103791.03
2023-02-04T13:40:39.281Z,103797.91
2023-02-04T13:43:05.657Z,103793.59
2023-02-04T13:45:32.491Z,103802.97
2023-02-04T13:47:59.106Z,103801.94
2023-02-04T13:50:25.547Z,103799.31
2023-02-04T13:52:52.022Z,103790.72
2023-02-04T13:55:18.442Z,103789.94
2023-02-04T13:57:44.924Z,103789.94
2023-02-04T14:00:11.997Z,103789.94
2023-02-04T14:02:38.362Z,103794.25
2023-02-04T14:05:05.364Z,103789.13
2023-02-04T14:07:33.489Z,103792.59
2023-02-04T14:10:00.966Z,103796.88
2023-02-04T14:12:27.433Z,103788.28
2023-02-04T14:14:53.802Z,103796.03
2023-02-04T14:17:25.691Z,103785.78
2023-02-04T14:19:55.556Z,103787.50
2023-02-04T14:22:22.079Z,103797.81
2023-02-04T14:24:48.824Z,103803.75
2023-02-04T14:27:15.289Z,103802.91
2023-02-04T14:29:41.791Z,103805.53
2023-02-04T14:32:08.419Z,103803.00
2023-02-04T14:34:35.004Z,103800.50
2023-02-04T14:37:01.457Z,103811.63
2023-02-04T14:39:27.929Z,103804.81
2023-02-04T14:41:54.322Z,103803.97
2023-02-04T14:44:21.013Z,103802.31
2023-02-04T14:46:48.919Z,103800.59
2023-02-04T14:49:18.008Z,103799.72
2023-02-04T14:51:44.616Z,103799.59
2023-02-04T14:54:11.153Z,103793.59
2023-02-04T14:56:37.670Z,103800.44
2023-02-04T14:59:06.868Z,103796.91
2023-02-04T15:01:36.499Z,103804.59
2023-02-04T15:04:03.106Z,103806.31
2023-02-04T15:06:29.547Z,103809.69
2023-02-04T15:08:57.147Z,103816.50
2023-02-04T15:11:25.393Z,103806.19
2023-02-04T15:13:51.866Z,103810.44
2023-02-04T15:16:18.334Z,103818.91
2023-02-04T15:18:44.872Z,103813.72
2023-02-04T15:21:11.609Z,103817.97
2023-02-04T15:23:38.104Z,103823.06
2023-02-04T15:26:05.165Z,103823.94
2023-02-04T15:28:31.564Z,103823.06
2023-02-04T15:30:58.556Z,103828.19
2023-02-04T15:33:25.228Z,103836.72
2023-02-04T15:35:51.696Z,103833.31
2023-02-04T15:38:18.187Z,103836.72
2023-02-04T15:40:47.768Z,103833.34
2023-02-04T15:43:17.170Z,103836.69
2023-02-04T15:45:43.927Z,103831.56
2023-02-04T15:48:11.032Z,103826.41
2023-02-04T15:50:38.889Z,103826.41
2023-02-04T15:53:06.849Z,103825.47
2023-02-04T15:55:42.706Z,103822.84
2023-02-04T15:58:09.182Z,103821.06
2023-02-04T16:00:35.789Z,103827.06
2023-02-04T16:03:02.278Z,103821.88
2023-02-04T16:05:32.522Z,103824.34
2023-02-04T16:08:01.841Z,103826.03
2023-02-04T16:10:28.943Z,103823.38
2023-02-04T16:12:57.771Z,103831.88
2023-02-04T16:15:25.279Z,103833.53
2023-02-04T16:17:52.577Z,103837.66
2023-02-04T16:20:19.131Z,103837.63
2023-02-04T16:22:45.536Z,103838.41
2023-02-04T16:25:12.027Z,103840.09
2023-02-04T16:27:38.556Z,103848.63
2023-02-04T16:30:05.506Z,103851.13
2023-02-04T16:32:33.771Z,103847.59
2023-02-04T16:35:00.768Z,103856.00
2023-02-04T16:37:27.522Z,103861.75
2023-02-04T16:39:53.997Z,103863.28
2023-02-04T16:42:20.430Z,103867.41
2023-02-04T16:44:46.927Z,103861.34
2023-02-04T16:47:13.451Z,103862.91
2023-02-04T16:49:40.222Z,103872.25
2023-02-04T16:52:07.188Z,103867.03
2023-02-04T16:54:34.745Z,103874.63
2023-02-04T16:57:01.536Z,103877.13
2023-02-04T16:59:28.666Z,103879.47
2023-02-04T17:01:57.617Z,103876.84
2023-02-04T17:04:24.959Z,103877.59
2023-02-04T17:06:51.856Z,103871.41
2023-02-04T17:09:18.299Z,103875.50
2023-02-04T17:11:45.282Z,103884.81
2023-02-04T17:14:16.221Z,103887.34
2023-02-04T17:16:44.037Z,103895.91
2023-02-04T17:19:12.203Z,103892.53
2023-02-04T17:21:39.268Z,103900.25
2023-02-04T17:24:09.213Z,103895.13
2023-02-04T17:26:37.617Z,103890.09
2023-02-04T17:29:08.299Z,103880.72
2023-02-04T17:31:35.189Z,103880.75
2023-02-04T17:34:03.160Z,103884.13
2023-02-04T17:36:30.547Z,103879.91
2023-02-04T17:38:57.517Z,103878.03
2023-02-04T17:41:24.159Z,103882.19
2023-02-04T17:43:51.031Z,103888.13
2023-02-04T17:46:17.536Z,103888.19
2023-02-04T17:48:44.055Z,103895.78
2023-02-04T17:51:10.581Z,103889.00
2023-02-04T17:53:38.753Z,103900.91
2023-02-04T17:56:10.628Z,103913.72
2023-02-04T17:58:37.657Z,103913.81
2023-02-04T18:01:11.495Z,103914.66
2023-02-04T18:03:38.466Z,103914.59
2023-02-04T18:06:18.625Z,103902.59
2023-02-04T18:08:45.098Z,103900.91
2023-02-04T18:11:36.035Z,103898.34
2023-02-04T18:14:17.893Z,103903.47
2023-02-04T18:16:45.446Z,103900.00
2023-02-04T18:19:29.390Z,103908.47
2023-02-04T18:21:57.957Z,103905.06
2023-02-04T18:24:30.593Z,103901.66
2023-02-04T18:27:01.046Z,103902.44
2023-02-04T18:29:27.458Z,103911.00
2023-02-04T18:31:56.685Z,103900.72
2023-02-04T18:34:44.835Z,103911.03
2023-02-04T18:37:26.764Z,103897.31
2023-02-04T18:40:08.435Z,103905.81
2023-02-04T18:42:37.925Z,103902.38
2023-02-04T18:45:26.652Z,103909.97
2023-02-04T18:47:58.325Z,103921.06
2023-02-04T18:50:34.048Z,103926.09
2023-02-04T18:53:12.323Z,103924.41
2023-02-04T18:55:40.504Z,103920.94
2023-02-04T18:58:31.837Z,103926.88
2023-02-04T19:01:01.464Z,103925.13
2023-02-04T19:03:31.467Z,103915.78
2023-02-04T19:06:00.483Z,103915.88
2023-02-04T19:08:42.699Z,103914.13
2023-02-04T19:11:46.478Z,103910.66
2023-02-04T19:14:21.599Z,103911.44
2023-02-04T19:16:50.765Z,103915.72
2023-02-04T19:19:29.686Z,103916.53
2023-02-04T19:21:56.216Z,103914.78
2023-02-04T19:24:29.427Z,103923.25
2023-02-04T19:26:58.221Z,103914.59
2023-02-04T19:29:28.666Z,103927.31
2023-02-04T19:31:59.722Z,103922.09
2023-02-04T19:34:28.966Z,103934.00
2023-02-04T19:36:55.538Z,103923.81
2023-02-04T19:39:29.695Z,103922.97
2023-02-04T19:41:57.530Z,103905.84
2023-02-04T19:44:43.653Z,103906.53
2023-02-04T19:47:23.310Z,103909.91
2023-02-04T19:49:49.970Z,103912.38
2023-02-04T19:52:37.459Z,103910.63
2023-02-04T19:55:24.096Z,103914.00
2023-02-04T19:58:00.518Z,103912.22
2023-02-04T20:00:39.919Z,103902.00
2023-02-04T20:03:36.643Z,103901.94
2023-02-04T20:06:27.363Z,103902.78
2023-02-04T20:09:06.326Z,103901.13
2023-02-04T20:11:33.107Z,103892.59
2023-02-04T20:14:14.586Z,103890.00
2023-02-04T20:16:53.693Z,103886.53
2023-02-04T20:19:33.490Z,103882.16
2023-02-04T20:22:18.100Z,103880.41
2023-02-04T20:24:45.504Z,103888.09
2023-02-04T20:27:14.879Z,103891.53
2023-02-04T20:29:41.320Z,103903.44
2023-02-04T20:32:30.889Z,103910.28
2023-02-04T20:35:22.200Z,103908.47
2023-02-04T20:37:52.779Z,103910.97
2023-02-04T20:40:31.731Z,103900.69
2023-02-04T20:43:01.789Z,103904.81
2023-02-04T20:45:54.053Z,103910.72
2023-02-04T20:48:24.907Z,103916.59
2023-02-04T20:50:52.764Z,103914.81
2023-02-04T20:53:22.588Z,103904.63
2023-02-04T20:55:52.164Z,103892.69
2023-02-04T20:58:27.903Z,103894.44
2023-02-04T21:00:56.028Z,103896.16
2023-02-04T21:03:37.423Z,103893.63
2023-02-04T21:06:23.852Z,103896.22
2023-02-04T21:08:52.975Z,103885.16
2023-02-04T21:11:20.143Z,103891.13
2023-02-04T21:13:46.723Z,103874.88
2023-02-04T21:16:13.228Z,103874.84
2023-02-04T21:18:40.071Z,103880.84
2023-02-04T21:21:08.339Z,103874.00
2023-02-04T21:23:38.373Z,103870.38
2023-02-04T21:26:05.526Z,103867.69
2023-02-04T21:28:32.649Z,103862.63
2023-02-04T21:31:00.149Z,103867.66
2023-02-04T21:33:27.177Z,103859.94
2023-02-04T21:35:53.586Z,103869.28
2023-02-04T21:38:20.041Z,103881.25
2023-02-04T21:40:46.587Z,103877.75
2023-02-04T21:43:13.083Z,103882.88
2023-02-04T21:45:39.806Z,103876.00
2023-02-04T21:48:07.940Z,103880.22
2023-02-04T21:50:35.033Z,103889.59
2023-02-04T21:53:01.592Z,103893.81
2023-02-04T21:55:28.931Z,103896.38
2023-02-04T21:57:55.423Z,103888.56
2023-02-04T22:00:23.723Z,103883.41
2023-02-04T22:02:51.868Z,103884.22
2023-02-04T22:05:19.474Z,103885.09
2023-02-04T22:07:46.662Z,103893.63
2023-02-04T22:10:18.553Z,103880.81
2023-02-04T22:12:44.911Z,103879.06
2023-02-04T22:15:11.286Z,103874.81
2023-02-04T22:17:37.643Z,103876.56
2023-02-04T22:20:04.249Z,103883.41
2023-02-04T22:22:30.664Z,103887.63
2023-02-04T22:24:57.059Z,103892.78
2023-02-04T22:27:23.590Z,103895.31
2023-02-04T22:29:50.009Z,103896.16
2023-02-04T22:32:16.492Z,103894.53
2023-02-04T22:34:42.943Z,103888.56
2023-02-04T22:37:09.367Z,103886.81
2023-02-04T22:39:35.855Z,103897.91
2023-02-04T22:42:02.258Z,103886.88
2023-02-04T22:44:28.741Z,103883.47
2023-02-04T22:46:55.200Z,103875.84
2023-02-04T22:49:21.668Z,103886.88
2023-02-04T22:51:48.075Z,103890.28
2023-02-04T22:54:14.490Z,103886.06
2023-02-04T22:56:40.923Z,103878.38
2023-02-04T22:59:07.421Z,103873.19
2023-02-04T23:01:33.750Z,103859.50
2023-02-04T23:04:00.250Z,103862.94
2023-02-04T23:06:27.586Z,103869.66
2023-02-04T23:08:54.330Z,103863.69
2023-02-04T23:11:23.021Z,103855.16
2023-02-04T23:13:50.330Z,103854.28
2023-02-04T23:16:18.888Z,103851.78
2023-02-04T23:18:46.074Z,103856.03
2023-02-04T23:21:12.819Z,103854.28
2023-02-04T23:23:39.489Z,103843.25
2023-02-04T23:26:06.500Z,103841.53
2023-02-04T23:28:33.097Z,103832.88
2023-02-04T23:30:59.655Z,103832.84
2023-02-04T23:33:26.104Z,103829.44
2023-02-04T23:35:52.666Z,103814.94
2023-02-04T23:38:19.060Z,103809.75
2023-02-04T23:40:45.438Z,103811.41
2023-02-04T23:43:11.951Z,103811.41
2023-02-04T23:45:38.568Z,103813.16
2023-02-04T23:48:05.730Z,103814.03
2023-02-04T23:50:32.449Z,103810.59
2023-02-04T23:52:58.982Z,103816.63
2023-02-04T23:55:25.494Z,103819.22
2023-02-04T23:57:51.909Z,103808.19
